TAF and METAR

Could not understand the following METAR

YBAS 251300Z AUTO 30011KT 9999 // SCT099 31/17 Q1005

TAF for Alice Springs Airport

TAF AMD YBAS 251109Z 2512/2612 31007KT CAVOK FM260000 17006KT CAVOK FM260400 12008KT 9999 -SHRA SCT070 TEMPO 2604/2612 VRB20G35KT 1000 TSRA SCT015 SCT060CB PROB30 TEMPO 2512/2604 VRB20G35KT 2000 TSRA SCT020 SCT090CB
Report created 25. jan 12:09

between 25. jan 13:00 - 26. jan 13:00

wind 7 knots from NW (310°) Clear sky

From 26. jan 01:00

wind 6 knots from S (170°) Clear sky

From 26. jan 05:00

wind 8 knots from ESE (120°) visibility > 10km light rain showers scattered clouds (~50% cover) at 7000 feet

temporarily between 26. jan 05:00 - 26. jan 13:00

wind 20 knots from various directions with gusts up to 35 knots visibility 1000 meters thunderstorm and rain scattered clouds (~50% cover) at 1500 feet scattered clouds (~50% cover) at 6000 feet of type cumulonimbus

probably (~30%) temporarily between 25. jan 13:00 - 26. jan 05:00

wind 20 knots from various directions with gusts up to 35 knots visibility 2000 meters thunderstorm and rain scattered clouds (~50% cover) at 2000 feet scattered clouds (~50% cover) at 9000 feet of type cumulonimbus
Alice Springs Airport in Australia at 541m

Latest 5 airports